Time;durP1;ratioP1;P1;durP2;ratioP2;P2;SDS_P1;SDS_P2;PMS_P1;PMS_P2;Temp;Humidity;BMP_temperature;BMP_pressure;BME280_temperature;BME280_humidity;BME280_pressure;Samples;Min_cycle;Max_cycle;Signal;HPM_P1;HPM_P2
2022/03/07 00:01:36;;;;;;;31.03;18.70;;;;;;;0.19;64.19;95574.17;1814114;79;20987;-66
2022/03/07 00:04:02;;;;;;;36.00;20.33;;;;;;;0.18;63.79;95568.55;1813443;79;21018;-66
2022/03/07 00:06:29;;;;;;;35.47;19.80;;;;;;;0.18;63.42;95562.06;1813518;79;21023;-66
2022/03/07 00:08:56;;;;;;;32.73;18.57;;;;;;;0.23;63.54;95566.05;1814129;79;21046;-66
2022/03/07 00:11:23;;;;;;;31.77;19.17;;;;;;;0.24;62.95;95566.92;1813441;79;21517;-65
2022/03/07 00:13:49;;;;;;;32.40;17.40;;;;;;;0.19;62.62;95565.52;1784727;79;20991;-66
2022/03/07 00:16:17;;;;;;;35.03;18.57;;;;;;;0.17;62.50;95565.91;1814112;79;20986;-66
2022/03/07 00:18:44;;;;;;;29.60;17.07;;;;;;;0.19;62.56;95566.39;1813754;79;21046;-66
2022/03/07 00:21:10;;;;;;;28.70;14.60;;;;;;;0.19;63.38;95574.60;1813712;79;21035;-66
2022/03/07 00:23:37;;;;;;;28.87;16.23;;;;;;;0.16;63.54;95566.33;1813564;79;21054;-66
2022/03/07 00:26:06;;;;;;;30.10;16.03;;;;;;;0.11;63.75;95565.36;1813810;79;20979;-66
2022/03/07 00:28:32;;;;;;;30.77;18.23;;;;;;;0.18;63.38;95568.55;1813366;79;21073;-66
2022/03/07 00:30:59;;;;;;;31.30;17.53;;;;;;;0.21;63.68;95556.06;1813873;79;21007;-67
2022/03/07 00:33:26;;;;;;;32.33;16.20;;;;;;;0.28;63.19;95572.61;1813846;79;21071;-66
2022/03/07 00:35:53;;;;;;;26.07;15.30;;;;;;;0.28;62.85;95564.82;1813678;79;20967;-66
2022/03/07 00:38:19;;;;;;;29.17;16.67;;;;;;;0.28;64.33;95567.41;1813838;79;20987;-66
2022/03/07 00:40:47;;;;;;;26.87;16.10;;;;;;;0.26;63.94;95566.53;1813467;79;21042;-66
2022/03/07 00:43:14;;;;;;;28.27;15.53;;;;;;;0.26;64.12;95554.43;1813733;79;21597;-65
2022/03/07 00:45:41;;;;;;;26.10;15.40;;;;;;;0.25;63.71;95558.28;1813830;79;20995;-66
2022/03/07 00:48:07;;;;;;;25.70;14.10;;;;;;;0.23;63.21;95556.97;1813566;79;21055;-66
2022/03/07 00:50:34;;;;;;;27.23;14.37;;;;;;;0.21;63.78;95551.73;1813386;79;21003;-66
2022/03/07 00:53:01;;;;;;;29.53;15.17;;;;;;;0.21;62.41;95554.76;1813821;79;21063;-66
2022/03/07 00:55:28;;;;;;;24.53;13.70;;;;;;;0.21;62.09;95549.14;1813669;79;20948;-66
2022/03/07 00:57:55;;;;;;;25.70;14.40;;;;;;;0.21;61.92;95549.57;1813724;79;20996;-66
2022/03/07 01:00:22;;;;;;;23.83;14.73;;;;;;;0.25;61.91;95546.17;1813836;79;21007;-66
2022/03/07 01:02:48;;;;;;;28.00;15.20;;;;;;;0.26;61.96;95540.59;1813988;79;21015;-66
2022/03/07 01:05:15;;;;;;;26.70;14.40;;;;;;;0.24;61.92;95540.55;1813684;79;21516;-66
2022/03/07 01:07:42;;;;;;;24.93;14.37;;;;;;;0.21;61.85;95532.70;1813804;79;21485;-66
2022/03/07 01:10:09;;;;;;;25.80;14.90;;;;;;;0.22;62.03;95533.14;1813829;79;20983;-66
2022/03/07 01:12:36;;;;;;;24.50;13.10;;;;;;;0.21;63.14;95533.57;1813794;79;21473;-66
2022/03/07 01:15:05;;;;;;;23.00;13.00;;;;;;;0.21;64.32;95531.41;1813557;79;21043;-66
2022/03/07 01:17:33;;;;;;;22.27;13.43;;;;;;;0.14;66.21;95526.50;1813617;79;20999;-66
2022/03/07 01:19:59;;;;;;;25.87;13.57;;;;;;;0.16;65.54;95526.55;1813852;79;21022;-66
2022/03/07 01:22:26;;;;;;;24.50;15.03;;;;;;;0.16;65.86;95531.73;1813329;79;21059;-66
2022/03/07 01:24:52;;;;;;;30.70;16.97;;;;;;;0.18;65.40;95530.92;1813749;79;20976;-66
2022/03/07 01:27:20;;;;;;;31.20;16.90;;;;;;;0.17;65.63;95524.39;1813457;79;21011;-66
2022/03/07 01:29:47;;;;;;;29.90;15.90;;;;;;;0.07;66.32;95527.64;1813915;79;20975;-66
2022/03/07 01:32:14;;;;;;;27.30;16.13;;;;;;;0.10;65.69;95521.22;1813512;79;21011;-66
2022/03/07 01:34:41;;;;;;;29.20;15.73;;;;;;;0.14;65.16;95521.74;1813633;79;21003;-66
2022/03/07 01:37:08;;;;;;;33.07;18.50;;;;;;;0.14;65.41;95519.16;1814258;79;21034;-65
2022/03/07 01:39:35;;;;;;;34.97;18.47;;;;;;;0.12;65.78;95515.64;1814008;79;20967;-65
2022/03/07 01:42:03;;;;;;;31.30;17.77;;;;;;;0.12;66.36;95515.22;1813643;79;21003;-65
2022/03/07 01:44:30;;;;;;;32.73;17.37;;;;;;;0.08;67.23;95516.45;1814364;79;21007;-66
2022/03/07 01:46:58;;;;;;;32.73;17.57;;;;;;;0.11;66.47;95513.91;1813966;79;21569;-65
2022/03/07 01:49:26;;;;;;;34.33;18.00;;;;;;;0.12;66.40;95513.92;1813859;79;21496;-66
2022/03/07 01:51:54;;;;;;;33.53;18.40;;;;;;;0.06;67.81;95510.34;1816809;79;21037;-66
2022/03/07 01:54:21;;;;;;;32.00;17.87;;;;;;;0.04;67.71;95509.44;1816989;79;21071;-66
2022/03/07 01:56:51;;;;;;;26.90;15.23;;;;;;;0.08;67.28;95513.42;1817237;79;20975;-66
2022/03/07 01:59:25;;;;;;;28.47;16.43;;;;;;;0.11;67.45;95507.42;1817029;79;21118;-66
2022/03/07 02:01:54;;;;;;;26.17;14.93;;;;;;;0.14;67.40;95507.05;1817136;79;20979;-66
2022/03/07 02:04:22;;;;;;;32.30;17.47;;;;;;;0.06;66.80;95506.45;1790074;79;21031;-66
2022/03/07 02:06:49;;;;;;;28.73;17.00;;;;;;;-0.02;66.87;95514.95;1789737;79;21030;-66
2022/03/07 02:09:17;;;;;;;30.17;18.00;;;;;;;0.03;66.38;95508.99;1817197;79;20983;-66
2022/03/07 02:11:45;;;;;;;30.70;17.93;;;;;;;0.06;66.32;95506.45;1817010;79;21458;-66
2022/03/07 02:14:24;;;;;;;30.77;17.17;;;;;;;0.04;66.38;95511.59;1817044;79;20983;-66
2022/03/07 02:16:52;;;;;;;31.30;18.33;;;;;;;0.03;66.25;95511.16;1816987;79;21548;-66
2022/03/07 02:19:19;;;;;;;28.30;18.00;;;;;;;0.09;66.30;95503.91;1816758;79;21098;-69
2022/03/07 02:21:49;;;;;;;33.40;18.67;;;;;;;0.13;66.75;95509.20;1816364;79;20983;-66
2022/03/07 02:24:21;;;;;;;31.70;18.53;;;;;;;0.09;66.48;95507.38;1815706;79;21062;-66
2022/03/07 02:27:02;;;;;;;34.23;19.43;;;;;;;0.10;66.89;95503.96;1816523;79;21026;-65
2022/03/07 02:29:30;;;;;;;36.30;19.60;;;;;;;0.16;66.60;95507.95;1816979;79;21006;-66
2022/03/07 02:31:59;;;;;;;31.57;18.00;;;;;;;0.18;66.72;95511.46;1816756;79;21087;-66
2022/03/07 02:34:28;;;;;;;35.37;19.50;;;;;;;0.19;67.37;95512.33;1816781;79;21014;-66
2022/03/07 02:36:55;;;;;;;36.63;19.67;;;;;;;0.16;67.48;95496.28;1817010;79;21477;-66
2022/03/07 02:39:23;;;;;;;32.77;19.03;;;;;;;0.21;67.35;95495.95;1816681;79;21015;-66
2022/03/07 02:41:49;;;;;;;37.30;19.33;;;;;;;0.25;67.29;95502.48;1816998;79;21019;-66
2022/03/07 02:44:16;;;;;;;30.77;17.43;;;;;;;0.25;67.13;95503.78;1817049;79;20947;-66
2022/03/07 02:46:44;;;;;;;32.13;17.90;;;;;;;0.23;67.79;95502.48;1817186;79;21037;-66
2022/03/07 02:49:10;;;;;;;33.77;18.10;;;;;;;0.22;67.60;95504.60;1816921;79;21090;-66
2022/03/07 02:51:37;;;;;;;41.60;18.90;;;;;;;0.23;67.91;95502.88;1814451;79;21010;-66
2022/03/07 02:54:05;;;;;;;30.43;17.87;;;;;;;0.22;67.70;95507.20;1813935;79;21521;-66
2022/03/07 02:56:32;;;;;;;33.07;18.77;;;;;;;0.17;67.78;95501.04;1813720;79;21007;-66
2022/03/07 02:58:59;;;;;;;29.77;17.80;;;;;;;0.21;67.86;95498.97;1813912;79;20995;-66
2022/03/07 03:01:25;;;;;;;33.70;17.90;;;;;;;0.23;67.68;95501.58;1813708;79;21038;-71
2022/03/07 03:03:52;;;;;;;34.43;18.00;;;;;;;0.16;68.36;95494.98;1814016;79;21003;-66
2022/03/07 03:06:19;;;;;;;34.07;17.83;;;;;;;0.17;68.56;95504.50;1813800;79;21030;-65
2022/03/07 03:08:46;;;;;;;32.33;18.47;;;;;;;0.12;68.63;95503.54;1813664;79;21311;-66
2022/03/07 03:11:12;;;;;;;31.60;17.70;;;;;;;0.07;68.92;95502.58;1813508;79;21042;-66
2022/03/07 03:13:39;;;;;;;31.43;18.07;;;;;;;0.08;68.75;95503.05;1813805;79;21038;-66
2022/03/07 03:16:06;;;;;;;34.07;18.97;;;;;;;0.10;68.37;95505.66;1813298;79;21055;-66
2022/03/07 03:18:32;;;;;;;35.23;20.33;;;;;;;0.08;68.76;95512.13;1813824;79;20940;-65
2022/03/07 03:20:59;;;;;;;35.27;20.13;;;;;;;0.02;69.35;95508.52;1813760;79;21496;-66
2022/03/07 03:23:26;;;;;;;32.87;18.33;;;;;;;-0.11;69.97;95512.16;1813839;79;20983;-66
2022/03/07 03:25:53;;;;;;;30.20;18.00;;;;;;;-0.25;69.78;95511.01;1813888;79;20995;-66
2022/03/07 03:28:19;;;;;;;32.23;17.43;;;;;;;-0.32;69.71;95511.28;1813962;79;21034;-66
2022/03/07 03:30:46;;;;;;;33.37;18.20;;;;;;;-0.39;69.85;95513.28;1813668;79;21062;-66
2022/03/07 03:33:13;;;;;;;31.07;16.27;;;;;;;-0.40;69.64;95514.14;1813826;79;20964;-66
2022/03/07 03:35:39;;;;;;;28.00;15.13;;;;;;;-0.41;69.50;95519.28;1813500;79;21093;-66
2022/03/07 03:38:12;;;;;;;26.10;14.80;;;;;;;-0.45;69.26;95517.05;1813420;79;20980;-66
2022/03/07 03:40:37;;;;;;;31.27;15.63;;;;;;;-0.51;69.12;95524.24;1812893;79;21113;-66
2022/03/07 03:43:04;;;;;;;23.07;13.07;;;;;;;-0.52;69.05;95522.50;1813890;79;21114;-66
2022/03/07 03:45:31;;;;;;;26.80;14.43;;;;;;;-0.59;69.09;95517.15;1813683;79;20991;-66
2022/03/07 03:47:59;;;;;;;27.30;15.43;;;;;;;-0.59;68.56;95514.56;1813506;79;20975;-66
2022/03/07 03:50:26;;;;;;;27.73;15.70;;;;;;;-0.60;68.37;95518.87;1814433;79;21006;-65
2022/03/07 03:52:52;;;;;;;29.30;14.53;;;;;;;-0.61;68.37;95518.83;1816714;79;20991;-65
2022/03/07 03:55:19;;;;;;;26.13;13.60;;;;;;;-0.64;68.02;95518.33;1816707;79;21023;-65
2022/03/07 03:57:46;;;;;;;25.53;13.27;;;;;;;-0.63;67.99;95516.22;1816240;79;21027;-66
2022/03/07 04:00:17;;;;;;;23.83;14.50;;;;;;;-0.66;67.97;95517.42;1816652;79;21062;-66
2022/03/07 04:02:43;;;;;;;26.80;14.50;;;;;;;-0.73;68.00;95520.70;1817098;79;21446;-66
2022/03/07 04:05:12;;;;;;;22.83;11.67;;;;;;;-0.76;68.07;95515.45;1816786;79;21094;-66
2022/03/07 04:07:40;;;;;;;27.17;14.43;;;;;;;-0.84;68.20;95517.00;1817170;79;21465;-66
2022/03/07 04:10:09;;;;;;;26.00;15.17;;;;;;;-0.82;68.16;95512.31;1816969;79;21011;-66
2022/03/07 04:12:36;;;;;;;26.57;14.77;;;;;;;-0.77;68.23;95515.02;1816858;79;21429;-66
2022/03/07 04:15:05;;;;;;;26.67;12.77;;;;;;;-0.75;68.25;95514.64;1816826;79;21018;-65
2022/03/07 04:17:32;;;;;;;22.53;13.33;;;;;;;-0.74;67.96;95516.38;1817121;79;20975;-66
2022/03/07 04:19:59;;;;;;;22.50;13.37;;;;;;;-0.83;68.27;95518.73;1816711;79;21378;-66
2022/03/07 04:22:25;;;;;;;23.77;12.47;;;;;;;-0.83;68.11;95516.14;1816812;79;20983;-66
2022/03/07 04:24:52;;;;;;;25.10;13.70;;;;;;;-0.88;68.33;95522.11;1816717;79;20972;-66
2022/03/07 04:27:18;;;;;;;24.23;13.27;;;;;;;-0.87;67.84;95525.57;1816904;79;20994;-66
2022/03/07 04:29:45;;;;;;;25.20;13.03;;;;;;;-0.96;67.80;95517.17;1816970;79;21139;-66
2022/03/07 04:32:12;;;;;;;22.87;13.07;;;;;;;-0.96;68.49;95522.75;1817038;79;21009;-66
2022/03/07 04:34:38;;;;;;;24.93;13.10;;;;;;;-0.95;67.98;95521.93;1816887;79;20995;-66
2022/03/07 04:37:05;;;;;;;22.83;12.17;;;;;;;-1.00;68.07;95514.04;1816739;79;21074;-66
2022/03/07 04:39:32;;;;;;;29.40;13.90;;;;;;;-1.01;67.84;95517.45;1816587;79;21015;-66
2022/03/07 04:41:58;;;;;;;24.40;12.80;;;;;;;-1.06;68.18;95524.23;1816752;79;21018;-66
2022/03/07 04:44:25;;;;;;;23.37;12.23;;;;;;;-1.06;68.34;95523.36;1816642;79;21122;-66
2022/03/07 04:46:51;;;;;;;22.47;11.30;;;;;;;-1.14;68.82;95527.92;1816920;79;20947;-66
2022/03/07 04:49:18;;;;;;;23.13;12.93;;;;;;;-1.21;69.34;95534.20;1816756;79;21508;-66
2022/03/07 04:51:46;;;;;;;24.67;11.93;;;;;;;-1.24;69.03;95532.84;1814461;79;21027;-66
2022/03/07 04:54:15;;;;;;;18.43;10.60;;;;;;;-1.24;68.83;95532.41;1813647;79;20968;-66
2022/03/07 04:56:43;;;;;;;22.90;12.87;;;;;;;-1.21;68.69;95530.33;1813864;79;20990;-66
2022/03/07 04:59:13;;;;;;;19.40;11.40;;;;;;;-1.21;68.65;95530.33;1813740;79;21037;-66
2022/03/07 05:01:40;;;;;;;19.77;10.23;;;;;;;-1.22;68.54;95530.75;1813530;79;21006;-66
2022/03/07 05:04:07;;;;;;;20.97;11.60;;;;;;;-1.26;68.33;95532.82;1813587;79;21019;-66
2022/03/07 05:06:34;;;;;;;16.30;8.87;;;;;;;-1.23;68.37;95535.91;1813738;79;21015;-78
2022/03/07 05:09:01;;;;;;;25.07;10.87;;;;;;;-1.31;69.40;95527.52;1813260;79;21516;-66
2022/03/07 05:11:27;;;;;;;21.07;11.43;;;;;;;-1.37;69.20;95531.65;1813669;79;21011;-66
2022/03/07 05:13:54;;;;;;;26.20;12.53;;;;;;;-1.36;69.25;95532.09;1813472;79;20976;-66
2022/03/07 05:16:21;;;;;;;25.87;12.70;;;;;;;-1.35;69.19;95527.39;1813588;79;20983;-66
2022/03/07 05:18:49;;;;;;;22.73;11.33;;;;;;;-1.35;69.62;95532.58;1813924;79;20972;-66
2022/03/07 05:21:16;;;;;;;18.37;10.57;;;;;;;-1.38;69.45;95529.48;1813861;79;20974;-65
2022/03/07 05:23:43;;;;;;;22.40;11.50;;;;;;;-1.41;70.21;95532.39;1813434;79;21517;-66
2022/03/07 05:26:10;;;;;;;26.70;12.60;;;;;;;-1.41;70.02;95530.71;1813854;79;21002;-74
2022/03/07 05:28:36;;;;;;;21.60;10.83;;;;;;;-1.43;71.01;95526.33;1813881;79;20999;-66
2022/03/07 05:31:03;;;;;;;22.17;11.63;;;;;;;-1.41;70.38;95524.63;1813784;79;20955;-65
2022/03/07 05:33:29;;;;;;;18.63;10.27;;;;;;;-1.42;70.30;95524.19;1813871;79;21048;-66
2022/03/07 05:35:56;;;;;;;20.30;11.77;;;;;;;-1.39;70.29;95526.42;1813415;79;21046;-66
2022/03/07 05:38:23;;;;;;;19.97;11.37;;;;;;;-1.39;70.86;95526.42;1813511;79;20991;-66
2022/03/07 05:40:50;;;;;;;21.27;11.53;;;;;;;-1.36;71.40;95531.70;1813889;79;21074;-65
2022/03/07 05:43:16;;;;;;;20.87;10.53;;;;;;;-1.31;71.70;95526.65;1813216;79;20972;-65
2022/03/07 05:45:43;;;;;;;15.00;9.33;;;;;;;-1.31;71.22;95527.52;1813634;79;21011;-66
2022/03/07 05:48:10;;;;;;;19.37;11.13;;;;;;;-1.31;70.50;95525.36;1813699;79;21026;-66
2022/03/07 05:50:36;;;;;;;21.70;11.57;;;;;;;-1.34;71.11;95528.71;1813606;79;21011;-66
2022/03/07 05:53:03;;;;;;;21.80;11.03;;;;;;;-1.34;71.20;95531.30;1813569;79;21019;-66
2022/03/07 05:55:29;;;;;;;17.10;10.83;;;;;;;-1.34;71.46;95526.13;1813500;79;20998;-68
2022/03/07 05:57:59;;;;;;;22.93;11.93;;;;;;;-1.33;71.48;95526.59;1812776;79;21070;-69
2022/03/07 06:00:24;;;;;;;24.47;11.60;;;;;;;-1.38;71.87;95522.15;1812077;79;20999;-71
2022/03/07 06:02:51;;;;;;;20.37;11.53;;;;;;;-1.39;72.20;95528.14;1812721;79;20983;-71
2022/03/07 06:05:18;;;;;;;19.27;10.90;;;;;;;-1.35;71.92;95525.68;1812376;79;21030;-70
2022/03/07 06:07:44;;;;;;;20.30;9.57;;;;;;;-1.41;71.78;95525.92;1812820;79;21007;-71
2022/03/07 06:10:11;;;;;;;26.17;13.53;;;;;;;-1.37;71.88;95529.06;1812765;79;21066;-72
2022/03/07 06:12:37;;;;;;;35.77;18.63;;;;;;;-1.29;71.67;95530.12;1812291;79;21045;-73
2022/03/07 06:15:06;;;;;;;29.10;15.67;;;;;;;-1.23;71.46;95533.31;1811847;79;21045;-67
2022/03/07 06:17:36;;;;;;;33.33;15.13;;;;;;;-1.29;71.45;95526.67;1812337;79;21054;-66
2022/03/07 06:20:05;;;;;;;33.07;15.37;;;;;;;-1.30;71.71;95536.16;1812150;79;20986;-69
2022/03/07 06:22:31;;;;;;;24.63;12.97;;;;;;;-1.34;72.24;95527.84;1813604;79;21000;-68
2022/03/07 06:24:58;;;;;;;24.47;12.87;;;;;;;-1.35;72.54;95523.09;1812448;79;20975;-68
2022/03/07 06:27:25;;;;;;;21.87;10.50;;;;;;;-1.35;72.73;95533.44;1813475;79;21539;-68
2022/03/07 06:29:51;;;;;;;18.80;9.90;;;;;;;-1.31;72.37;95532.70;1813721;79;20991;-67
2022/03/07 06:32:20;;;;;;;17.40;8.87;;;;;;;-1.29;71.94;95530.55;1811977;79;21131;-68
2022/03/07 06:34:46;;;;;;;21.53;10.90;;;;;;;-1.33;71.70;95536.95;1812861;79;21062;-69
2022/03/07 06:37:13;;;;;;;21.13;11.60;;;;;;;-1.34;72.19;95537.77;1812008;79;21051;-66
2022/03/07 06:39:39;;;;;;;16.03;8.33;;;;;;;-1.31;72.22;95540.89;1813081;79;21037;-65
2022/03/07 06:42:07;;;;;;;20.53;11.80;;;;;;;-1.26;72.11;95535.80;1812617;79;21663;-67
2022/03/07 06:44:33;;;;;;;20.30;11.30;;;;;;;-1.23;72.70;95532.89;1813205;79;21034;-71
2022/03/07 06:47:00;;;;;;;20.30;10.87;;;;;;;-1.17;72.56;95536.05;1813260;79;21035;-68
2022/03/07 06:49:27;;;;;;;16.13;9.97;;;;;;;-1.11;72.16;95531.91;1813401;79;20975;-69
2022/03/07 06:51:53;;;;;;;18.57;10.87;;;;;;;-1.13;72.78;95537.46;1812584;79;21113;-68
2022/03/07 06:54:20;;;;;;;23.60;13.10;;;;;;;-1.05;71.89;95535.49;1813251;79;21054;-70
2022/03/07 06:56:47;;;;;;;21.63;12.13;;;;;;;-0.95;71.87;95533.58;1812192;79;21070;-68
2022/03/07 06:59:13;;;;;;;24.63;13.57;;;;;;;-0.94;71.26;95534.89;1812623;79;21007;-69
2022/03/07 07:01:40;;;;;;;23.27;12.63;;;;;;;-0.90;71.36;95537.16;1812812;79;21521;-71
2022/03/07 07:04:06;;;;;;;20.17;11.03;;;;;;;-0.81;71.00;95534.77;1813059;79;21501;-69
2022/03/07 07:06:33;;;;;;;22.30;10.73;;;;;;;-0.73;70.70;95538.44;1813270;79;21651;-84
2022/03/07 07:09:00;;;;;;;25.87;12.20;;;;;;;-0.69;70.14;95541.97;1811978;79;21077;-75
2022/03/07 07:11:26;;;;;;;18.80;10.87;;;;;;;-0.60;69.86;95546.51;1812145;79;21057;-75
2022/03/07 07:13:53;;;;;;;20.73;12.13;;;;;;;-0.53;69.60;95535.41;1812847;79;21015;-73
2022/03/07 07:16:20;;;;;;;21.47;12.00;;;;;;;-0.50;69.30;95540.27;1812955;79;21050;-74
2022/03/07 07:18:47;;;;;;;26.23;14.50;;;;;;;-0.37;68.44;95534.94;1813939;79;21497;-73
2022/03/07 07:21:13;;;;;;;18.50;10.40;;;;;;;-0.31;68.32;95524.69;1812507;79;21481;-73
2022/03/07 07:23:40;;;;;;;19.83;11.30;;;;;;;-0.15;68.06;95528.52;1813723;79;21090;-76
2022/03/07 07:26:07;;;;;;;23.47;13.30;;;;;;;-0.03;67.45;95527.87;1813925;79;21529;-70
2022/03/07 07:28:34;;;;;;;21.47;13.30;;;;;;;0.11;67.31;95519.09;1812776;79;21117;-73
2022/03/07 07:31:01;;;;;;;24.87;13.87;;;;;;;0.23;66.75;95517.15;1812088;79;21110;-72
2022/03/07 07:33:28;;;;;;;26.77;15.40;;;;;;;0.21;66.76;95525.78;1812310;79;21046;-72
2022/03/07 07:35:55;;;;;;;25.47;13.20;;;;;;;0.26;66.76;95518.53;1812403;79;21632;-71
2022/03/07 07:38:21;;;;;;;24.17;14.67;;;;;;;0.29;66.77;95516.86;1812139;79;21050;-71
2022/03/07 07:40:49;;;;;;;24.27;13.20;;;;;;;0.42;66.74;95508.45;1813004;79;21052;-73
2022/03/07 07:43:17;;;;;;;20.63;12.27;;;;;;;0.56;66.58;95508.73;1812341;79;21050;-72
2022/03/07 07:45:45;;;;;;;19.73;11.00;;;;;;;0.56;65.96;95507.42;1813691;79;21008;-74
2022/03/07 07:48:12;;;;;;;28.30;15.17;;;;;;;0.66;66.68;95501.11;1813363;79;21568;-75
2022/03/07 07:50:38;;;;;;;24.63;12.47;;;;;;;0.72;66.10;95500.78;1812370;79;21089;-73
2022/03/07 07:53:06;;;;;;;24.43;13.90;;;;;;;0.76;66.12;95503.89;1813530;79;20967;-70
2022/03/07 07:55:33;;;;;;;31.77;15.70;;;;;;;0.84;65.43;95503.59;1812869;79;21116;-73
2022/03/07 07:57:59;;;;;;;32.17;16.83;;;;;;;0.94;65.79;95499.44;1813172;79;21316;-75
2022/03/07 08:00:27;;;;;;;25.90;15.20;;;;;;;1.03;65.36;95491.80;1813676;78;21124;-71
2022/03/07 08:02:53;;;;;;;26.10;14.70;;;;;;;1.15;65.39;95492.41;1770598;80;21055;-72
2022/03/07 08:05:20;;;;;;;31.57;16.40;;;;;;;1.23;64.93;95496.42;1798265;80;21588;-72
2022/03/07 08:07:48;;;;;;;26.37;15.23;;;;;;;1.37;65.05;95485.81;1798801;80;21158;-70
2022/03/07 08:10:16;;;;;;;30.20;15.77;;;;;;;1.48;64.81;95490.73;1798355;80;21081;-71
2022/03/07 08:12:45;;;;;;;32.90;18.77;;;;;;;1.49;63.74;95485.14;1764653;80;21580;-70
2022/03/07 08:15:13;;;;;;;36.57;19.57;;;;;;;1.61;64.33;95485.72;1798561;80;21034;-72
2022/03/07 08:17:46;;;;;;;31.07;17.33;;;;;;;1.94;65.08;95482.69;1793887;78;21577;-75
2022/03/07 08:20:14;;;;;;;28.67;15.75;;;;;;;2.05;63.47;95478.50;1790999;80;21020;-73
2022/03/07 08:22:42;;;;;;;30.07;15.93;;;;;;;1.94;64.56;95472.27;1805877;78;20997;-71
2022/03/07 08:25:10;;;;;;;35.90;17.23;;;;;;;2.09;64.42;95482.00;1824927;78;21123;-70
2022/03/07 08:27:38;;;;;;;33.97;17.83;;;;;;;2.05;62.88;95476.34;1824801;78;21067;-71
2022/03/07 08:30:09;;;;;;;30.57;17.10;;;;;;;2.04;63.91;95483.67;1824987;78;21054;-69
2022/03/07 08:32:38;;;;;;;31.60;17.57;;;;;;;2.09;63.45;95480.70;1822603;78;21011;-68
2022/03/07 08:35:07;;;;;;;31.13;18.23;;;;;;;2.11;62.79;95472.49;1825237;78;21075;-68
2022/03/07 08:37:35;;;;;;;34.43;19.30;;;;;;;2.13;63.62;95472.95;1825958;78;21469;-72
2022/03/07 08:40:05;;;;;;;30.90;17.13;;;;;;;2.25;62.72;95477.88;1824430;78;21058;-71
2022/03/07 08:42:32;;;;;;;30.60;17.27;;;;;;;2.27;62.47;95471.83;1824981;78;21027;-68
2022/03/07 08:44:59;;;;;;;36.30;18.17;;;;;;;2.38;62.69;95473.24;1825417;78;21027;-68
2022/03/07 08:47:26;;;;;;;31.90;17.40;;;;;;;2.32;63.18;95474.05;1825784;78;20988;-71
2022/03/07 08:49:53;;;;;;;35.67;19.83;;;;;;;2.33;63.79;95471.89;1824804;78;21571;-73
2022/03/07 08:52:20;;;;;;;32.13;18.33;;;;;;;2.47;63.57;95473.36;1825691;78;21070;-70
2022/03/07 08:54:47;;;;;;;28.97;17.10;;;;;;;2.53;63.88;95472.10;1829850;78;21551;-74
2022/03/07 08:57:15;;;;;;;43.77;26.53;;;;;;;2.63;63.36;95470.91;1831218;78;21478;-69
2022/03/07 08:59:42;;;;;;;37.93;20.80;;;;;;;2.66;63.64;95471.80;1829969;78;21058;-70
2022/03/07 09:02:12;;;;;;;37.23;18.63;;;;;;;2.62;62.85;95467.84;1831078;78;21011;-69
2022/03/07 09:04:40;;;;;;;35.33;20.27;;;;;;;2.63;61.89;95472.20;1830928;78;21126;-78
2022/03/07 09:07:07;;;;;;;34.17;18.77;;;;;;;2.72;61.51;95467.06;1830769;78;21031;-72
2022/03/07 09:09:34;;;;;;;35.90;18.63;;;;;;;2.63;59.97;95472.20;1800783;78;20995;-72
2022/03/07 09:12:04;;;;;;;37.47;22.50;;;;;;;2.58;60.20;95478.66;1829997;78;21006;-70
2022/03/07 09:14:31;;;;;;;28.70;17.47;;;;;;;2.40;60.25;95474.14;1830647;78;20979;-68
2022/03/07 09:16:58;;;;;;;30.87;17.00;;;;;;;2.44;60.74;95477.20;1831598;78;21516;-71
2022/03/07 09:19:24;;;;;;;26.67;15.40;;;;;;;2.48;59.69;95480.30;1829408;78;21044;-71
2022/03/07 09:21:51;;;;;;;27.80;15.47;;;;;;;2.25;59.36;95481.78;1824306;78;20989;-69
2022/03/07 09:24:19;;;;;;;25.50;14.57;;;;;;;2.24;59.88;95478.71;1820436;78;21025;-72
2022/03/07 09:26:47;;;;;;;24.97;13.70;;;;;;;2.16;58.80;95480.80;1821855;78;21062;-67
2022/03/07 09:29:14;;;;;;;24.93;14.60;;;;;;;2.20;60.02;95480.42;1825784;78;21052;-74
2022/03/07 09:31:41;;;;;;;25.20;14.60;;;;;;;2.29;59.18;95475.33;1820044;78;20962;-69
2022/03/07 09:34:10;;;;;;;24.70;14.63;;;;;;;2.37;58.74;95481.49;1830749;78;21060;-73
2022/03/07 09:36:36;;;;;;;20.20;11.97;;;;;;;2.44;58.31;95475.90;1828025;78;20958;-71
2022/03/07 09:39:04;;;;;;;25.70;14.20;;;;;;;2.46;59.48;95468.98;1821170;78;21041;-74
2022/03/07 09:41:31;;;;;;;23.17;13.07;;;;;;;2.55;57.59;95477.34;1828042;78;21095;-77
2022/03/07 09:43:58;;;;;;;23.83;14.50;;;;;;;2.56;57.81;95474.73;1826185;78;21034;-73
2022/03/07 09:46:26;;;;;;;23.43;13.23;;;;;;;2.52;57.05;95476.88;1815179;78;20966;-77
2022/03/07 09:48:54;;;;;;;22.93;13.53;;;;;;;2.45;57.69;95473.77;1823589;78;20993;-71
2022/03/07 09:51:21;;;;;;;28.73;14.10;;;;;;;2.60;57.54;95471.31;1824087;78;21084;-73
2022/03/07 09:53:47;;;;;;;33.13;16.77;;;;;;;2.62;57.09;95470.03;1819812;78;21065;-75
2022/03/07 09:56:14;;;;;;;35.70;19.67;;;;;;;2.68;57.09;95471.83;1819022;79;21472;-77
2022/03/07 09:58:41;;;;;;;25.83;14.53;;;;;;;2.66;56.33;95472.23;1820711;79;21045;-73
2022/03/07 10:01:14;;;;;;;25.23;16.53;;;;;;;2.68;57.34;95473.99;1820926;79;21356;-73
2022/03/07 10:03:42;;;;;;;28.50;17.50;;;;;;;2.62;56.68;95469.14;1820845;79;21049;-75
2022/03/07 10:06:15;;;;;;;25.83;16.23;;;;;;;2.56;56.98;95469.52;1821303;79;21037;-74
2022/03/07 10:08:54;;;;;;;32.33;18.32;;;;;;;2.45;56.99;95467.25;1821034;79;21102;-75
2022/03/07 10:11:23;;;;;;;28.80;17.53;;;;;;;2.46;57.29;95472.02;1821124;79;21496;-75
2022/03/07 10:13:57;;;;;;;29.90;16.23;;;;;;;2.52;57.65;95469.06;1821418;79;21029;-74
2022/03/07 10:16:24;;;;;;;36.00;20.63;;;;;;;2.49;55.97;95473.35;1821182;79;21006;-74
2022/03/07 10:18:54;;;;;;;28.50;18.00;;;;;;;2.44;56.97;95466.78;1794017;79;20983;-74
2022/03/07 10:21:24;;;;;;;27.40;15.60;;;;;;;2.51;56.48;95466.00;1821381;79;21521;-74
2022/03/07 10:23:54;;;;;;;28.00;15.50;;;;;;;2.49;55.31;95461.20;1821041;79;21014;-74
2022/03/07 10:26:22;;;;;;;24.80;14.57;;;;;;;2.43;55.21;95460.28;1820558;79;21172;-74
2022/03/07 10:28:54;;;;;;;27.50;15.37;;;;;;;2.25;55.38;95462.26;1820394;79;21065;-75
2022/03/07 10:31:22;;;;;;;26.43;15.37;;;;;;;2.22;55.91;95460.49;1820068;79;21034;-75
2022/03/07 10:34:03;;;;;;;21.60;13.17;;;;;;;2.25;55.81;95471.37;1820637;79;21017;-74
2022/03/07 10:36:42;;;;;;;20.33;12.30;;;;;;;2.33;55.85;95455.40;1820889;79;21507;-75
2022/03/07 10:39:13;;;;;;;17.77;11.23;;;;;;;2.49;54.89;95452.52;1821027;79;21472;-74
2022/03/07 10:41:46;;;;;;;23.57;12.50;;;;;;;2.72;55.35;95454.04;1821324;79;21082;-74
2022/03/07 10:44:27;;;;;;;25.45;14.50;;;;;;;2.87;55.49;95448.09;1821056;79;21026;-74
2022/03/07 10:47:11;;;;;;;25.23;14.00;;;;;;;2.89;52.97;95445.08;1820872;79;21009;-74
2022/03/07 10:49:54;;;;;;;23.57;13.50;;;;;;;2.81;53.92;95448.48;1779151;79;21088;-74
2022/03/07 10:52:23;;;;;;;22.82;13.80;;;;;;;2.53;54.40;95447.36;1818676;79;21524;-74
2022/03/07 10:54:51;;;;;;;23.47;13.53;;;;;;;2.43;54.36;95444.22;1825139;78;21018;-74
2022/03/07 10:57:20;;;;;;;20.40;11.80;;;;;;;2.36;55.23;95440.66;1826130;78;21044;-74
2022/03/07 10:59:46;;;;;;;24.83;14.10;;;;;;;2.31;54.21;95448.86;1825992;78;21078;-74
2022/03/07 11:02:16;;;;;;;21.57;12.27;;;;;;;2.10;54.40;95438.23;1824747;78;21081;-75
2022/03/07 11:04:52;;;;;;;23.23;13.70;;;;;;;2.08;54.51;95437.33;1825496;78;21061;-74
2022/03/07 11:07:17;;;;;;;20.00;12.23;;;;;;;2.10;55.02;95436.92;1823401;78;20959;-74
2022/03/07 11:09:43;;;;;;;26.63;14.63;;;;;;;2.14;54.33;95430.88;1825387;78;21064;-74
2022/03/07 11:12:14;;;;;;;22.07;14.47;;;;;;;2.03;54.21;95426.00;1825725;78;21061;-74
2022/03/07 11:14:43;;;;;;;21.83;12.10;;;;;;;1.96;54.33;95428.94;1825912;78;21009;-74
2022/03/07 11:17:15;;;;;;;20.73;12.80;;;;;;;1.98;55.76;95422.03;1826207;78;21010;-74
2022/03/07 11:19:44;;;;;;;25.57;14.60;;;;;;;2.07;55.78;95419.55;1826177;78;21544;-74
2022/03/07 11:22:11;;;;;;;22.67;12.07;;;;;;;2.08;54.84;95418.67;1826072;78;20994;-74
2022/03/07 11:24:40;;;;;;;20.00;13.57;;;;;;;2.06;55.27;95418.22;1826289;78;20951;-74